sensor_id;sensor_type;location;lat;lon;timestamp;P1;durP1;ratioP1;P2;durP2;ratioP2
4980;SDS011;2507;50.392;7.482;2023-04-25T00:01:02;11.40;;;9.27;;
4980;SDS011;2507;50.392;7.482;2023-04-25T00:03:29;13.17;;;9.27;;
4980;SDS011;2507;50.392;7.482;2023-04-25T00:05:55;13.57;;;8.73;;
4980;SDS011;2507;50.392;7.482;2023-04-25T00:08:21;10.77;;;9.67;;
4980;SDS011;2507;50.392;7.482;2023-04-25T00:10:47;8.17;;;7.47;;
4980;SDS011;2507;50.392;7.482;2023-04-25T00:13:13;11.50;;;7.13;;
4980;SDS011;2507;50.392;7.482;2023-04-25T00:15:39;9.93;;;7.00;;
4980;SDS011;2507;50.392;7.482;2023-04-25T00:18:06;8.87;;;7.07;;
4980;SDS011;2507;50.392;7.482;2023-04-25T00:20:32;8.20;;;7.40;;
4980;SDS011;2507;50.392;7.482;2023-04-25T00:22:57;10.50;;;7.23;;
4980;SDS011;2507;50.392;7.482;2023-04-25T00:25:22;8.63;;;7.17;;
4980;SDS011;2507;50.392;7.482;2023-04-25T00:27:48;7.23;;;6.53;;
4980;SDS011;2507;50.392;7.482;2023-04-25T00:30:13;9.70;;;7.40;;
4980;SDS011;2507;50.392;7.482;2023-04-25T00:32:39;7.90;;;7.10;;
4980;SDS011;2507;50.392;7.482;2023-04-25T00:35:04;8.50;;;7.70;;
4980;SDS011;2507;50.392;7.482;2023-04-25T00:37:30;12.30;;;7.57;;
4980;SDS011;2507;50.392;7.482;2023-04-25T00:39:57;10.03;;;7.17;;
4980;SDS011;2507;50.392;7.482;2023-04-25T00:42:22;9.00;;;7.37;;
4980;SDS011;2507;50.392;7.482;2023-04-25T00:44:49;8.07;;;7.13;;
4980;SDS011;2507;50.392;7.482;2023-04-25T00:47:16;10.40;;;7.33;;
4980;SDS011;2507;50.392;7.482;2023-04-25T00:49:41;9.27;;;7.40;;
4980;SDS011;2507;50.392;7.482;2023-04-25T00:52:07;12.47;;;7.00;;
4980;SDS011;2507;50.392;7.482;2023-04-25T00:54:32;10.60;;;7.40;;
4980;SDS011;2507;50.392;7.482;2023-04-25T00:56:58;9.87;;;6.93;;
4980;SDS011;2507;50.392;7.482;2023-04-25T00:59:23;9.03;;;7.30;;
4980;SDS011;2507;50.392;7.482;2023-04-25T01:01:50;9.40;;;7.17;;
4980;SDS011;2507;50.392;7.482;2023-04-25T01:04:15;12.40;;;7.03;;
4980;SDS011;2507;50.392;7.482;2023-04-25T01:06:41;11.70;;;7.20;;
4980;SDS011;2507;50.392;7.482;2023-04-25T01:09:06;9.30;;;6.70;;
4980;SDS011;2507;50.392;7.482;2023-04-25T01:11:32;11.57;;;6.80;;
4980;SDS011;2507;50.392;7.482;2023-04-25T01:13:57;8.37;;;6.90;;
4980;SDS011;2507;50.392;7.482;2023-04-25T01:16:23;10.17;;;6.70;;
4980;SDS011;2507;50.392;7.482;2023-04-25T01:18:51;12.57;;;8.07;;
4980;SDS011;2507;50.392;7.482;2023-04-25T01:21:17;10.50;;;6.80;;
4980;SDS011;2507;50.392;7.482;2023-04-25T01:23:42;7.53;;;6.77;;
4980;SDS011;2507;50.392;7.482;2023-04-25T01:26:08;10.87;;;7.80;;
4980;SDS011;2507;50.392;7.482;2023-04-25T01:28:36;11.23;;;7.60;;
4980;SDS011;2507;50.392;7.482;2023-04-25T01:31:02;10.23;;;7.80;;
4980;SDS011;2507;50.392;7.482;2023-04-25T01:33:28;9.87;;;7.57;;
4980;SDS011;2507;50.392;7.482;2023-04-25T01:35:54;11.00;;;6.87;;
4980;SDS011;2507;50.392;7.482;2023-04-25T01:38:19;9.40;;;7.60;;
4980;SDS011;2507;50.392;7.482;2023-04-25T01:40:45;9.70;;;8.03;;
4980;SDS011;2507;50.392;7.482;2023-04-25T01:43:12;11.60;;;7.90;;
4980;SDS011;2507;50.392;7.482;2023-04-25T01:45:39;11.27;;;8.40;;
4980;SDS011;2507;50.392;7.482;2023-04-25T01:48:06;13.27;;;8.00;;
4980;SDS011;2507;50.392;7.482;2023-04-25T01:50:34;11.40;;;8.03;;
4980;SDS011;2507;50.392;7.482;2023-04-25T01:52:59;13.03;;;8.70;;
4980;SDS011;2507;50.392;7.482;2023-04-25T01:55:25;17.87;;;9.30;;
4980;SDS011;2507;50.392;7.482;2023-04-25T01:57:51;10.97;;;8.60;;
4980;SDS011;2507;50.392;7.482;2023-04-25T02:00:16;14.27;;;9.23;;
4980;SDS011;2507;50.392;7.482;2023-04-25T02:02:41;12.60;;;9.70;;
4980;SDS011;2507;50.392;7.482;2023-04-25T02:05:07;9.63;;;8.60;;
4980;SDS011;2507;50.392;7.482;2023-04-25T02:07:32;12.60;;;9.03;;
4980;SDS011;2507;50.392;7.482;2023-04-25T02:09:57;15.97;;;9.97;;
4980;SDS011;2507;50.392;7.482;2023-04-25T02:12:23;14.23;;;8.53;;
4980;SDS011;2507;50.392;7.482;2023-04-25T02:14:49;11.47;;;9.23;;
4980;SDS011;2507;50.392;7.482;2023-04-25T02:17:14;16.00;;;9.33;;
4980;SDS011;2507;50.392;7.482;2023-04-25T02:19:40;12.03;;;9.63;;
4980;SDS011;2507;50.392;7.482;2023-04-25T02:22:06;18.47;;;10.23;;
4980;SDS011;2507;50.392;7.482;2023-04-25T02:24:31;13.97;;;9.47;;
4980;SDS011;2507;50.392;7.482;2023-04-25T02:26:58;14.17;;;8.87;;
4980;SDS011;2507;50.392;7.482;2023-04-25T02:29:23;13.33;;;9.60;;
4980;SDS011;2507;50.392;7.482;2023-04-25T02:31:49;9.87;;;8.87;;
4980;SDS011;2507;50.392;7.482;2023-04-25T02:34:14;17.13;;;10.40;;
4980;SDS011;2507;50.392;7.482;2023-04-25T02:36:39;13.37;;;9.53;;
4980;SDS011;2507;50.392;7.482;2023-04-25T02:39:04;11.70;;;8.97;;
4980;SDS011;2507;50.392;7.482;2023-04-25T02:41:30;13.40;;;9.63;;
4980;SDS011;2507;50.392;7.482;2023-04-25T02:43:55;13.30;;;10.23;;
4980;SDS011;2507;50.392;7.482;2023-04-25T02:46:20;14.80;;;10.07;;
4980;SDS011;2507;50.392;7.482;2023-04-25T02:48:46;18.23;;;8.23;;
4980;SDS011;2507;50.392;7.482;2023-04-25T02:51:11;16.37;;;9.60;;
4980;SDS011;2507;50.392;7.482;2023-04-25T02:53:37;11.83;;;8.90;;
4980;SDS011;2507;50.392;7.482;2023-04-25T02:56:02;12.60;;;9.57;;
4980;SDS011;2507;50.392;7.482;2023-04-25T02:58:27;12.40;;;9.10;;
4980;SDS011;2507;50.392;7.482;2023-04-25T03:00:53;16.30;;;10.07;;
4980;SDS011;2507;50.392;7.482;2023-04-25T03:03:19;13.97;;;9.57;;
4980;SDS011;2507;50.392;7.482;2023-04-25T03:05:46;15.23;;;9.70;;
4980;SDS011;2507;50.392;7.482;2023-04-25T03:08:15;13.97;;;9.83;;
4980;SDS011;2507;50.392;7.482;2023-04-25T03:10:41;12.40;;;9.90;;
4980;SDS011;2507;50.392;7.482;2023-04-25T03:13:06;16.93;;;10.83;;
4980;SDS011;2507;50.392;7.482;2023-04-25T03:15:32;11.53;;;9.30;;
4980;SDS011;2507;50.392;7.482;2023-04-25T03:17:57;11.60;;;9.33;;
4980;SDS011;2507;50.392;7.482;2023-04-25T03:20:22;11.57;;;10.40;;
4980;SDS011;2507;50.392;7.482;2023-04-25T03:22:48;15.60;;;10.93;;
4980;SDS011;2507;50.392;7.482;2023-04-25T03:25:13;18.90;;;10.53;;
4980;SDS011;2507;50.392;7.482;2023-04-25T03:27:38;15.40;;;11.50;;
4980;SDS011;2507;50.392;7.482;2023-04-25T03:30:03;19.90;;;12.77;;
4980;SDS011;2507;50.392;7.482;2023-04-25T03:32:29;18.83;;;12.20;;
4980;SDS011;2507;50.392;7.482;2023-04-25T03:34:55;17.30;;;12.80;;
4980;SDS011;2507;50.392;7.482;2023-04-25T03:37:20;22.80;;;12.50;;
4980;SDS011;2507;50.392;7.482;2023-04-25T03:39:45;17.07;;;12.60;;
4980;SDS011;2507;50.392;7.482;2023-04-25T03:42:11;18.40;;;11.90;;
4980;SDS011;2507;50.392;7.482;2023-04-25T03:44:36;16.33;;;12.03;;
4980;SDS011;2507;50.392;7.482;2023-04-25T03:47:01;16.70;;;11.33;;
4980;SDS011;2507;50.392;7.482;2023-04-25T03:49:26;17.30;;;11.27;;
4980;SDS011;2507;50.392;7.482;2023-04-25T03:51:52;15.17;;;10.50;;
4980;SDS011;2507;50.392;7.482;2023-04-25T03:54:17;10.23;;;9.07;;
4980;SDS011;2507;50.392;7.482;2023-04-25T03:56:42;16.50;;;10.30;;
4980;SDS011;2507;50.392;7.482;2023-04-25T03:59:07;13.60;;;9.97;;
4980;SDS011;2507;50.392;7.482;2023-04-25T04:01:33;13.47;;;10.13;;
4980;SDS011;2507;50.392;7.482;2023-04-25T04:03:58;11.50;;;9.73;;
4980;SDS011;2507;50.392;7.482;2023-04-25T04:06:23;25.23;;;10.17;;
4980;SDS011;2507;50.392;7.482;2023-04-25T04:08:49;19.90;;;10.03;;
4980;SDS011;2507;50.392;7.482;2023-04-25T04:11:14;14.13;;;9.17;;
4980;SDS011;2507;50.392;7.482;2023-04-25T04:13:39;14.93;;;9.53;;
4980;SDS011;2507;50.392;7.482;2023-04-25T04:16:04;15.27;;;9.00;;
4980;SDS011;2507;50.392;7.482;2023-04-25T04:18:30;17.73;;;10.20;;
4980;SDS011;2507;50.392;7.482;2023-04-25T04:20:55;14.80;;;9.00;;
4980;SDS011;2507;50.392;7.482;2023-04-25T04:23:22;13.60;;;9.60;;
4980;SDS011;2507;50.392;7.482;2023-04-25T04:25:48;16.13;;;9.70;;
4980;SDS011;2507;50.392;7.482;2023-04-25T04:28:13;13.03;;;9.13;;
4980;SDS011;2507;50.392;7.482;2023-04-25T04:30:39;16.03;;;9.17;;
4980;SDS011;2507;50.392;7.482;2023-04-25T04:33:06;14.13;;;9.07;;
4980;SDS011;2507;50.392;7.482;2023-04-25T04:35:32;12.20;;;8.23;;
4980;SDS011;2507;50.392;7.482;2023-04-25T04:37:57;10.33;;;8.37;;
4980;SDS011;2507;50.392;7.482;2023-04-25T04:40:22;14.70;;;9.53;;
4980;SDS011;2507;50.392;7.482;2023-04-25T04:42:48;13.27;;;8.23;;
4980;SDS011;2507;50.392;7.482;2023-04-25T04:45:14;12.93;;;8.30;;
4980;SDS011;2507;50.392;7.482;2023-04-25T04:47:41;12.00;;;7.97;;
4980;SDS011;2507;50.392;7.482;2023-04-25T04:50:06;10.77;;;8.43;;
4980;SDS011;2507;50.392;7.482;2023-04-25T04:52:34;11.70;;;7.57;;
4980;SDS011;2507;50.392;7.482;2023-04-25T04:55:00;12.57;;;7.67;;
4980;SDS011;2507;50.392;7.482;2023-04-25T04:57:25;13.60;;;7.77;;
4980;SDS011;2507;50.392;7.482;2023-04-25T04:59:51;18.00;;;7.60;;
4980;SDS011;2507;50.392;7.482;2023-04-25T05:02:16;13.70;;;7.23;;
4980;SDS011;2507;50.392;7.482;2023-04-25T05:04:42;15.03;;;7.27;;
4980;SDS011;2507;50.392;7.482;2023-04-25T05:07:07;8.53;;;7.20;;
4980;SDS011;2507;50.392;7.482;2023-04-25T05:09:32;11.43;;;7.20;;
4980;SDS011;2507;50.392;7.482;2023-04-25T05:11:57;11.63;;;6.97;;
4980;SDS011;2507;50.392;7.482;2023-04-25T05:14:23;8.63;;;6.47;;
4980;SDS011;2507;50.392;7.482;2023-04-25T05:16:48;15.53;;;7.60;;
4980;SDS011;2507;50.392;7.482;2023-04-25T05:19:13;7.63;;;5.90;;
4980;SDS011;2507;50.392;7.482;2023-04-25T05:21:39;12.00;;;6.70;;
4980;SDS011;2507;50.392;7.482;2023-04-25T05:24:04;20.33;;;6.90;;
4980;SDS011;2507;50.392;7.482;2023-04-25T05:26:29;12.00;;;6.03;;
4980;SDS011;2507;50.392;7.482;2023-04-25T05:28:56;11.47;;;6.33;;
4980;SDS011;2507;50.392;7.482;2023-04-25T05:31:24;11.90;;;7.90;;
4980;SDS011;2507;50.392;7.482;2023-04-25T05:33:50;11.53;;;6.77;;
4980;SDS011;2507;50.392;7.482;2023-04-25T05:36:15;9.20;;;5.90;;
4980;SDS011;2507;50.392;7.482;2023-04-25T05:38:41;10.87;;;6.00;;
4980;SDS011;2507;50.392;7.482;2023-04-25T05:41:06;14.47;;;6.27;;
4980;SDS011;2507;50.392;7.482;2023-04-25T05:43:32;9.83;;;5.70;;
4980;SDS011;2507;50.392;7.482;2023-04-25T05:45:57;11.30;;;6.27;;
4980;SDS011;2507;50.392;7.482;2023-04-25T05:48:23;14.33;;;6.80;;
4980;SDS011;2507;50.392;7.482;2023-04-25T05:50:48;10.07;;;6.13;;
4980;SDS011;2507;50.392;7.482;2023-04-25T05:53:13;14.20;;;6.37;;
4980;SDS011;2507;50.392;7.482;2023-04-25T05:55:39;13.17;;;6.17;;
4980;SDS011;2507;50.392;7.482;2023-04-25T05:58:05;15.97;;;6.47;;
4980;SDS011;2507;50.392;7.482;2023-04-25T06:00:32;12.53;;;5.67;;
4980;SDS011;2507;50.392;7.482;2023-04-25T06:02:57;10.20;;;6.40;;
4980;SDS011;2507;50.392;7.482;2023-04-25T06:05:22;11.47;;;5.90;;
4980;SDS011;2507;50.392;7.482;2023-04-25T06:07:48;18.30;;;6.77;;
4980;SDS011;2507;50.392;7.482;2023-04-25T06:10:13;12.23;;;6.47;;
4980;SDS011;2507;50.392;7.482;2023-04-25T06:12:38;11.47;;;7.03;;
4980;SDS011;2507;50.392;7.482;2023-04-25T06:15:04;13.73;;;6.83;;
4980;SDS011;2507;50.392;7.482;2023-04-25T06:17:30;14.10;;;6.37;;
4980;SDS011;2507;50.392;7.482;2023-04-25T06:19:55;15.03;;;6.83;;
4980;SDS011;2507;50.392;7.482;2023-04-25T06:22:21;15.30;;;6.73;;
4980;SDS011;2507;50.392;7.482;2023-04-25T06:24:46;16.13;;;7.00;;
4980;SDS011;2507;50.392;7.482;2023-04-25T06:27:11;12.10;;;6.17;;
4980;SDS011;2507;50.392;7.482;2023-04-25T06:29:36;14.03;;;6.57;;
4980;SDS011;2507;50.392;7.482;2023-04-25T06:32:02;11.23;;;8.20;;
4980;SDS011;2507;50.392;7.482;2023-04-25T06:34:30;15.67;;;6.97;;
4980;SDS011;2507;50.392;7.482;2023-04-25T06:36:55;9.20;;;6.30;;
4980;SDS011;2507;50.392;7.482;2023-04-25T06:39:20;12.10;;;6.27;;
4980;SDS011;2507;50.392;7.482;2023-04-25T06:41:48;12.20;;;6.80;;
4980;SDS011;2507;50.392;7.482;2023-04-25T06:44:13;11.57;;;6.50;;
4980;SDS011;2507;50.392;7.482;2023-04-25T06:46:38;15.30;;;7.47;;
4980;SDS011;2507;50.392;7.482;2023-04-25T06:49:04;11.33;;;6.53;;
4980;SDS011;2507;50.392;7.482;2023-04-25T06:51:29;16.20;;;7.20;;
4980;SDS011;2507;50.392;7.482;2023-04-25T06:53:55;8.87;;;5.83;;
4980;SDS011;2507;50.392;7.482;2023-04-25T06:56:20;8.00;;;6.23;;
4980;SDS011;2507;50.392;7.482;2023-04-25T06:58:46;9.03;;;6.07;;
4980;SDS011;2507;50.392;7.482;2023-04-25T07:01:11;8.30;;;5.93;;
4980;SDS011;2507;50.392;7.482;2023-04-25T07:03:37;16.00;;;6.97;;
4980;SDS011;2507;50.392;7.482;2023-04-25T07:06:03;12.57;;;7.47;;
4980;SDS011;2507;50.392;7.482;2023-04-25T07:08:28;8.80;;;6.07;;
4980;SDS011;2507;50.392;7.482;2023-04-25T07:10:54;13.47;;;6.40;;
4980;SDS011;2507;50.392;7.482;2023-04-25T07:13:19;10.87;;;6.13;;
4980;SDS011;2507;50.392;7.482;2023-04-25T07:15:45;17.83;;;6.87;;
4980;SDS011;2507;50.392;7.482;2023-04-25T07:18:10;10.83;;;5.87;;
4980;SDS011;2507;50.392;7.482;2023-04-25T07:20:36;13.70;;;7.37;;
4980;SDS011;2507;50.392;7.482;2023-04-25T07:23:01;10.90;;;6.23;;
4980;SDS011;2507;50.392;7.482;2023-04-25T07:25:26;10.53;;;7.20;;
4980;SDS011;2507;50.392;7.482;2023-04-25T07:27:51;8.23;;;5.80;;
4980;SDS011;2507;50.392;7.482;2023-04-25T07:30:17;14.43;;;6.80;;
4980;SDS011;2507;50.392;7.482;2023-04-25T07:32:42;20.43;;;6.80;;
4980;SDS011;2507;50.392;7.482;2023-04-25T07:35:07;12.77;;;6.70;;
4980;SDS011;2507;50.392;7.482;2023-04-25T07:37:33;11.80;;;6.93;;
4980;SDS011;2507;50.392;7.482;2023-04-25T07:39:59;10.70;;;6.60;;
4980;SDS011;2507;50.392;7.482;2023-04-25T07:42:25;16.37;;;6.93;;
4980;SDS011;2507;50.392;7.482;2023-04-25T07:44:50;11.63;;;6.80;;
4980;SDS011;2507;50.392;7.482;2023-04-25T07:47:23;8.47;;;6.67;;
4980;SDS011;2507;50.392;7.482;2023-04-25T07:49:48;11.70;;;6.20;;
4980;SDS011;2507;50.392;7.482;2023-04-25T07:52:14;13.33;;;6.23;;
4980;SDS011;2507;50.392;7.482;2023-04-25T07:54:39;9.03;;;6.50;;
4980;SDS011;2507;50.392;7.482;2023-04-25T07:57:04;10.90;;;6.47;;
4980;SDS011;2507;50.392;7.482;2023-04-25T07:59:31;14.77;;;6.90;;
4980;SDS011;2507;50.392;7.482;2023-04-25T08:01:56;15.27;;;6.27;;
4980;SDS011;2507;50.392;7.482;2023-04-25T08:04:22;11.63;;;7.00;;
4980;SDS011;2507;50.392;7.482;2023-04-25T08:06:48;11.30;;;6.47;;
4980;SDS011;2507;50.392;7.482;2023-04-25T08:09:13;15.13;;;6.20;;
4980;SDS011;2507;50.392;7.482;2023-04-25T08:11:38;21.47;;;6.00;;
4980;SDS011;2507;50.392;7.482;2023-04-25T08:14:04;13.30;;;6.37;;
4980;SDS011;2507;50.392;7.482;2023-04-25T08:16:30;20.77;;;6.70;;
4980;SDS011;2507;50.392;7.482;2023-04-25T08:18:55;8.30;;;5.00;;
4980;SDS011;2507;50.392;7.482;2023-04-25T08:21:21;11.13;;;4.93;;
4980;SDS011;2507;50.392;7.482;2023-04-25T08:23:46;11.50;;;6.13;;
4980;SDS011;2507;50.392;7.482;2023-04-25T08:26:11;10.50;;;5.63;;
4980;SDS011;2507;50.392;7.482;2023-04-25T08:28:37;18.43;;;5.70;;
4980;SDS011;2507;50.392;7.482;2023-04-25T08:31:02;14.20;;;5.77;;
4980;SDS011;2507;50.392;7.482;2023-04-25T08:33:27;9.67;;;5.13;;
4980;SDS011;2507;50.392;7.482;2023-04-25T08:35:53;10.07;;;4.20;;
4980;SDS011;2507;50.392;7.482;2023-04-25T08:38:18;10.23;;;4.50;;
4980;SDS011;2507;50.392;7.482;2023-04-25T08:40:44;9.97;;;4.33;;
4980;SDS011;2507;50.392;7.482;2023-04-25T08:43:15;10.00;;;4.10;;
4980;SDS011;2507;50.392;7.482;2023-04-25T08:45:44;11.43;;;4.10;;
4980;SDS011;2507;50.392;7.482;2023-04-25T08:48:13;9.40;;;5.33;;
4980;SDS011;2507;50.392;7.482;2023-04-25T08:50:50;14.20;;;6.30;;
4980;SDS011;2507;50.392;7.482;2023-04-25T08:53:21;7.80;;;6.20;;
4980;SDS011;2507;50.392;7.482;2023-04-25T08:55:51;11.97;;;6.50;;
4980;SDS011;2507;50.392;7.482;2023-04-25T08:58:18;7.83;;;4.70;;
4980;SDS011;2507;50.392;7.482;2023-04-25T09:00:45;10.90;;;4.73;;
4980;SDS011;2507;50.392;7.482;2023-04-25T09:03:11;9.70;;;4.33;;
4980;SDS011;2507;50.392;7.482;2023-04-25T09:05:37;10.80;;;5.30;;
4980;SDS011;2507;50.392;7.482;2023-04-25T09:08:03;9.00;;;4.27;;
4980;SDS011;2507;50.392;7.482;2023-04-25T09:10:28;11.13;;;4.10;;
4980;SDS011;2507;50.392;7.482;2023-04-25T09:13:01;9.73;;;4.20;;
4980;SDS011;2507;50.392;7.482;2023-04-25T09:15:28;13.50;;;5.27;;
4980;SDS011;2507;50.392;7.482;2023-04-25T09:17:57;11.13;;;5.13;;
4980;SDS011;2507;50.392;7.482;2023-04-25T09:20:23;10.50;;;4.00;;
4980;SDS011;2507;50.392;7.482;2023-04-25T09:22:49;9.63;;;4.10;;
4980;SDS011;2507;50.392;7.482;2023-04-25T09:25:26;14.83;;;4.90;;
4980;SDS011;2507;50.392;7.482;2023-04-25T09:27:52;6.40;;;4.40;;
4980;SDS011;2507;50.392;7.482;2023-04-25T09:30:28;10.03;;;5.63;;
4980;SDS011;2507;50.392;7.482;2023-04-25T09:32:56;14.53;;;6.83;;
4980;SDS011;2507;50.392;7.482;2023-04-25T09:35:23;8.30;;;4.80;;
4980;SDS011;2507;50.392;7.482;2023-04-25T09:37:51;18.90;;;5.90;;
4980;SDS011;2507;50.392;7.482;2023-04-25T09:40:17;11.63;;;6.13;;
4980;SDS011;2507;50.392;7.482;2023-04-25T09:42:42;11.40;;;5.50;;
4980;SDS011;2507;50.392;7.482;2023-04-25T09:45:08;13.43;;;6.27;;
4980;SDS011;2507;50.392;7.482;2023-04-25T09:47:37;10.83;;;5.17;;
4980;SDS011;2507;50.392;7.482;2023-04-25T09:50:03;7.40;;;4.50;;
4980;SDS011;2507;50.392;7.482;2023-04-25T09:52:39;18.10;;;6.30;;
4980;SDS011;2507;50.392;7.482;2023-04-25T09:55:04;8.57;;;4.53;;
4980;SDS011;2507;50.392;7.482;2023-04-25T09:57:30;10.93;;;4.73;;
4980;SDS011;2507;50.392;7.482;2023-04-25T09:59:56;10.70;;;3.87;;
4980;SDS011;2507;50.392;7.482;2023-04-25T10:02:23;20.23;;;5.00;;
4980;SDS011;2507;50.392;7.482;2023-04-25T10:04:50;8.90;;;4.40;;
4980;SDS011;2507;50.392;7.482;2023-04-25T10:07:19;8.93;;;3.93;;
4980;SDS011;2507;50.392;7.482;2023-04-25T10:09:48;11.47;;;3.93;;
4980;SDS011;2507;50.392;7.482;2023-04-25T10:12:16;13.00;;;4.20;;
4980;SDS011;2507;50.392;7.482;2023-04-25T10:14:42;7.97;;;3.93;;
4980;SDS011;2507;50.392;7.482;2023-04-25T10:17:08;5.27;;;4.20;;
4980;SDS011;2507;50.392;7.482;2023-04-25T10:19:36;6.70;;;3.60;;
4980;SDS011;2507;50.392;7.482;2023-04-25T10:22:11;7.80;;;3.60;;
4980;SDS011;2507;50.392;7.482;2023-04-25T10:24:38;4.20;;;3.30;;
4980;SDS011;2507;50.392;7.482;2023-04-25T10:27:04;9.67;;;4.53;;
4980;SDS011;2507;50.392;7.482;2023-04-25T10:29:30;6.87;;;3.30;;
4980;SDS011;2507;50.392;7.482;2023-04-25T10:31:55;5.37;;;2.80;;
4980;SDS011;2507;50.392;7.482;2023-04-25T10:34:37;15.67;;;4.70;;
4980;SDS011;2507;50.392;7.482;2023-04-25T10:37:05;6.57;;;3.20;;
4980;SDS011;2507;50.392;7.482;2023-04-25T10:39:34;6.63;;;3.00;;
4980;SDS011;2507;50.392;7.482;2023-04-25T10:41:59;6.03;;;3.07;;
4980;SDS011;2507;50.392;7.482;2023-04-25T10:44:30;8.57;;;3.03;;
4980;SDS011;2507;50.392;7.482;2023-04-25T10:46:56;4.90;;;2.10;;
4980;SDS011;2507;50.392;7.482;2023-04-25T10:49:30;13.23;;;2.50;;
4980;SDS011;2507;50.392;7.482;2023-04-25T10:54:43;5.10;;;2.80;;
4980;SDS011;2507;50.392;7.482;2023-04-25T10:57:27;8.80;;;4.00;;
4980;SDS011;2507;50.392;7.482;2023-04-25T10:59:57;4.60;;;3.20;;
4980;SDS011;2507;50.392;7.482;2023-04-25T11:02:25;4.50;;;3.40;;
4980;SDS011;2507;50.392;7.482;2023-04-25T11:04:52;5.43;;;2.83;;
4980;SDS011;2507;50.392;7.482;2023-04-25T11:07:38;7.40;;;3.33;;
4980;SDS011;2507;50.392;7.482;2023-04-25T11:10:09;7.33;;;3.87;;
4980;SDS011;2507;50.392;7.482;2023-04-25T11:12:34;11.40;;;2.90;;
4980;SDS011;2507;50.392;7.482;2023-04-25T11:15:03;8.33;;;3.93;;
4980;SDS011;2507;50.392;7.482;2023-04-25T11:17:30;8.47;;;3.23;;
4980;SDS011;2507;50.392;7.482;2023-04-25T11:19:56;9.40;;;3.70;;
4980;SDS011;2507;50.392;7.482;2023-04-25T11:22:22;9.90;;;3.50;;
4980;SDS011;2507;50.392;7.482;2023-04-25T11:24:47;7.23;;;3.80;;
4980;SDS011;2507;50.392;7.482;2023-04-25T11:27:13;6.50;;;3.23;;
4980;SDS011;2507;50.392;7.482;2023-04-25T11:29:38;5.50;;;3.43;;
4980;SDS011;2507;50.392;7.482;2023-04-25T11:32:04;11.13;;;3.47;;
4980;SDS011;2507;50.392;7.482;2023-04-25T11:34:30;5.73;;;2.90;;
4980;SDS011;2507;50.392;7.482;2023-04-25T11:36:57;8.40;;;2.83;;
4980;SDS011;2507;50.392;7.482;2023-04-25T11:39:23;5.43;;;3.00;;
4980;SDS011;2507;50.392;7.482;2023-04-25T11:41:49;11.70;;;3.80;;
4980;SDS011;2507;50.392;7.482;2023-04-25T11:44:15;5.37;;;3.03;;
4980;SDS011;2507;50.392;7.482;2023-04-25T11:46:42;3.40;;;2.70;;
4980;SDS011;2507;50.392;7.482;2023-04-25T11:49:07;5.90;;;2.60;;
4980;SDS011;2507;50.392;7.482;2023-04-25T11:51:43;10.13;;;2.70;;
4980;SDS011;2507;50.392;7.482;2023-04-25T11:54:10;7.90;;;3.43;;
4980;SDS011;2507;50.392;7.482;2023-04-25T11:56:36;7.17;;;2.77;;
4980;SDS011;2507;50.392;7.482;2023-04-25T11:59:03;5.70;;;3.00;;
4980;SDS011;2507;50.392;7.482;2023-04-25T12:01:30;6.43;;;2.93;;
4980;SDS011;2507;50.392;7.482;2023-04-25T12:03:57;7.87;;;3.10;;
4980;SDS011;2507;50.392;7.482;2023-04-25T12:06:29;5.23;;;2.90;;
4980;SDS011;2507;50.392;7.482;2023-04-25T12:09:04;5.77;;;2.87;;
4980;SDS011;2507;50.392;7.482;2023-04-25T12:11:32;4.07;;;3.00;;
4980;SDS011;2507;50.392;7.482;2023-04-25T12:14:03;3.97;;;2.60;;
4980;SDS011;2507;50.392;7.482;2023-04-25T12:16:29;6.27;;;2.93;;
4980;SDS011;2507;50.392;7.482;2023-04-25T12:19:05;9.23;;;3.07;;
4980;SDS011;2507;50.392;7.482;2023-04-25T12:21:30;8.03;;;2.80;;
4980;SDS011;2507;50.392;7.482;2023-04-25T12:24:07;6.80;;;2.90;;
4980;SDS011;2507;50.392;7.482;2023-04-25T12:26:48;7.60;;;2.53;;
4980;SDS011;2507;50.392;7.482;2023-04-25T12:29:28;4.53;;;2.63;;
4980;SDS011;2507;50.392;7.482;2023-04-25T12:31:55;10.70;;;2.67;;
4980;SDS011;2507;50.392;7.482;2023-04-25T12:34:21;5.40;;;2.20;;
4980;SDS011;2507;50.392;7.482;2023-04-25T12:36:47;2.93;;;2.37;;
4980;SDS011;2507;50.392;7.482;2023-04-25T12:39:17;40.20;;;20.10;;
4980;SDS011;2507;50.392;7.482;2023-04-25T12:41:44;12.03;;;4.37;;
4980;SDS011;2507;50.392;7.482;2023-04-25T12:44:09;7.20;;;2.80;;
4980;SDS011;2507;50.392;7.482;2023-04-25T12:46:35;5.97;;;3.13;;
4980;SDS011;2507;50.392;7.482;2023-04-25T12:49:01;13.23;;;3.00;;
4980;SDS011;2507;50.392;7.482;2023-04-25T12:51:28;5.50;;;2.80;;
4980;SDS011;2507;50.392;7.482;2023-04-25T12:53:53;5.20;;;3.10;;
4980;SDS011;2507;50.392;7.482;2023-04-25T12:56:19;7.53;;;3.00;;
4980;SDS011;2507;50.392;7.482;2023-04-25T12:58:44;7.83;;;3.27;;
4980;SDS011;2507;50.392;7.482;2023-04-25T13:01:10;6.90;;;3.07;;
4980;SDS011;2507;50.392;7.482;2023-04-25T13:03:36;5.10;;;2.87;;
4980;SDS011;2507;50.392;7.482;2023-04-25T13:06:02;4.77;;;2.93;;
4980;SDS011;2507;50.392;7.482;2023-04-25T13:08:27;8.50;;;3.00;;
4980;SDS011;2507;50.392;7.482;2023-04-25T13:10:52;5.03;;;2.50;;
4980;SDS011;2507;50.392;7.482;2023-04-25T13:13:18;6.93;;;2.80;;
4980;SDS011;2507;50.392;7.482;2023-04-25T13:15:43;6.70;;;2.60;;
4980;SDS011;2507;50.392;7.482;2023-04-25T13:18:08;5.07;;;2.93;;
4980;SDS011;2507;50.392;7.482;2023-04-25T13:20:33;4.27;;;2.63;;
4980;SDS011;2507;50.392;7.482;2023-04-25T13:22:59;6.23;;;2.83;;
4980;SDS011;2507;50.392;7.482;2023-04-25T13:25:24;6.27;;;2.57;;
4980;SDS011;2507;50.392;7.482;2023-04-25T13:27:50;2.17;;;2.07;;
4980;SDS011;2507;50.392;7.482;2023-04-25T13:30:16;6.33;;;2.53;;
4980;SDS011;2507;50.392;7.482;2023-04-25T13:32:41;4.40;;;2.60;;
4980;SDS011;2507;50.392;7.482;2023-04-25T13:35:07;9.20;;;2.87;;
4980;SDS011;2507;50.392;7.482;2023-04-25T13:37:34;7.80;;;3.07;;
4980;SDS011;2507;50.392;7.482;2023-04-25T13:40:00;6.30;;;2.83;;
4980;SDS011;2507;50.392;7.482;2023-04-25T13:42:28;6.50;;;3.70;;
4980;SDS011;2507;50.392;7.482;2023-04-25T13:44:54;4.90;;;2.50;;
4980;SDS011;2507;50.392;7.482;2023-04-25T13:47:20;5.30;;;3.17;;
4980;SDS011;2507;50.392;7.482;2023-04-25T13:49:45;8.93;;;4.03;;
4980;SDS011;2507;50.392;7.482;2023-04-25T13:52:10;6.80;;;3.13;;
4980;SDS011;2507;50.392;7.482;2023-04-25T13:54:35;9.60;;;3.13;;
4980;SDS011;2507;50.392;7.482;2023-04-25T13:57:01;10.50;;;2.93;;
4980;SDS011;2507;50.392;7.482;2023-04-25T13:59:27;4.77;;;2.40;;
4980;SDS011;2507;50.392;7.482;2023-04-25T14:01:52;12.30;;;4.80;;
4980;SDS011;2507;50.392;7.482;2023-04-25T14:04:17;7.10;;;2.87;;
4980;SDS011;2507;50.392;7.482;2023-04-25T14:06:42;4.00;;;2.80;;
4980;SDS011;2507;50.392;7.482;2023-04-25T14:09:08;5.00;;;2.17;;
4980;SDS011;2507;50.392;7.482;2023-04-25T14:11:35;6.60;;;2.57;;
4980;SDS011;2507;50.392;7.482;2023-04-25T14:14:01;8.53;;;3.27;;
4980;SDS011;2507;50.392;7.482;2023-04-25T14:16:26;6.40;;;2.80;;
4980;SDS011;2507;50.392;7.482;2023-04-25T14:18:52;6.20;;;2.60;;
4980;SDS011;2507;50.392;7.482;2023-04-25T14:21:19;5.27;;;2.20;;
4980;SDS011;2507;50.392;7.482;2023-04-25T14:23:45;6.47;;;2.77;;
4980;SDS011;2507;50.392;7.482;2023-04-25T14:26:11;8.00;;;2.87;;
4980;SDS011;2507;50.392;7.482;2023-04-25T14:28:37;8.20;;;3.20;;
4980;SDS011;2507;50.392;7.482;2023-04-25T14:31:03;3.13;;;2.53;;
4980;SDS011;2507;50.392;7.482;2023-04-25T14:33:28;3.27;;;1.83;;
4980;SDS011;2507;50.392;7.482;2023-04-25T14:35:54;3.73;;;2.20;;
4980;SDS011;2507;50.392;7.482;2023-04-25T14:38:19;3.50;;;2.37;;
4980;SDS011;2507;50.392;7.482;2023-04-25T14:40:48;6.20;;;2.50;;
4980;SDS011;2507;50.392;7.482;2023-04-25T14:43:13;8.00;;;2.93;;
4980;SDS011;2507;50.392;7.482;2023-04-25T14:45:38;3.80;;;2.40;;
4980;SDS011;2507;50.392;7.482;2023-04-25T14:48:04;4.80;;;2.30;;
4980;SDS011;2507;50.392;7.482;2023-04-25T14:50:29;5.37;;;2.80;;
4980;SDS011;2507;50.392;7.482;2023-04-25T14:52:55;8.17;;;2.00;;
4980;SDS011;2507;50.392;7.482;2023-04-25T14:55:23;5.57;;;2.43;;
4980;SDS011;2507;50.392;7.482;2023-04-25T14:57:49;4.17;;;3.00;;
4980;SDS011;2507;50.392;7.482;2023-04-25T15:00:14;5.67;;;2.53;;
4980;SDS011;2507;50.392;7.482;2023-04-25T15:02:41;5.90;;;2.80;;
4980;SDS011;2507;50.392;7.482;2023-04-25T15:05:06;6.30;;;2.37;;